Adventure Hornblower — WDA3017 — position and weather

sailwx.info

Track history (hours):
 
Tides and Currents Weather Stations Pressure Air Temp Water Temp Dewpoint Dewpoint Depression Visibility Wind Speed Wind Dir Waves Ship Positions

Adventure Hornblower

Owner: Hornblower Cruises and Events, San Diego, CA. More information available from US FCC via Universal Licensing System and Coast Guard Vessel Documentation Center.

Last reported at 2018-Apr-18 18:30 UTC. Time now 2018-Apr-20 14:23 UTC.
Position N 32°38' W 117°25'.

Length 49 m; draft 1.8 m.

Type: Passenger vessel. MMSI: 366793760.

Date/timePositionNaut miles runAvg speedWind from/ knotsBaromVisibWave heightAir tempDewpointWater temp
2018-Apr-18 18:30N 32°38' W 117°25'  
2018-Apr-15 22:50N 32°39' W 117°21'411.9
2018-Apr-15 22:30N 32°40' W 117°26'4 8.5
2018-Apr-15 22:00N 32°36' W 117°27'510.5
2018-Apr-15 21:30N 32°39' W 117°21'10 7.9
2018-Apr-15 20:13N 32°43' W 117°10'0 0.0
2018-Apr-15 20:00N 32°43' W 117°10'9 8.2
2018-Apr-15 18:54N 32°40' W 117°21'4 9.4
2018-Apr-15 18:29N 32°41' W 117°25'4 8.3
2018-Apr-15 18:01N 32°37' W 117°27'4 8.6
2018-Apr-15 17:30N 32°37' W 117°22'713.2
2018-Apr-15 17:00N 32°39' W 117°14'6 0.3
2018-Apr-14 23:03N 32°38' W 117°21'115.2
2018-Apr-14 23:01N 32°38' W 117°22'4 7.2
2018-Apr-14 22:30N 32°40' W 117°25'2 3.6
2018-Apr-14 21:53N 32°38' W 117°26'  
2018-Apr-11 22:57N 32°38' W 117°23'3 6.1
2018-Apr-11 22:30N 32°37' W 117°25'3 0.6
2018-Apr-11 18:16N 32°36' W 117°23'8 7.0
2018-Apr-11 17:12N 32°38' W 117°14'  
2018-Apr-08 22:24N 32°42' W 117°20'1 2.1
2018-Apr-08 22:00N 32°42' W 117°21'  
Track history (hours):
 
Tides and Currents Weather Stations Pressure Air Temp Water Temp Dewpoint Dewpoint Depression Visibility Wind Speed Wind Dir Waves Ship Positions

Adventure Hornblower

Owner: Hornblower Cruises and Events, San Diego, CA. More information available from US FCC via Universal Licensing System and Coast Guard Vessel Documentation Center.

Last reported at 2018-Apr-18 18:30 UTC. Time now 2018-Apr-20 14:23 UTC.
Position N 32°38' W 117°25'.

Length 49 m; draft 1.8 m.

Type: Passenger vessel. MMSI: 366793760.

Date/timePositionNaut miles runAvg speedWind from/ knotsBaromVisibWave heightAir tempDewpointWater temp
2018-Apr-18 18:30N 32°38' W 117°25'  
2018-Apr-15 22:50N 32°39' W 117°21'411.9
2018-Apr-15 22:30N 32°40' W 117°26'4 8.5
2018-Apr-15 22:00N 32°36' W 117°27'510.5
2018-Apr-15 21:30N 32°39' W 117°21'10 7.9
2018-Apr-15 20:13N 32°43' W 117°10'0 0.0
2018-Apr-15 20:00N 32°43' W 117°10'9 8.2
2018-Apr-15 18:54N 32°40' W 117°21'4 9.4
2018-Apr-15 18:29N 32°41' W 117°25'4 8.3
2018-Apr-15 18:01N 32°37' W 117°27'4 8.6
2018-Apr-15 17:30N 32°37' W 117°22'713.2
2018-Apr-15 17:00N 32°39' W 117°14'6 0.3
2018-Apr-14 23:03N 32°38' W 117°21'115.2
2018-Apr-14 23:01N 32°38' W 117°22'4 7.2
2018-Apr-14 22:30N 32°40' W 117°25'2 3.6
2018-Apr-14 21:53N 32°38' W 117°26'  
2018-Apr-11 22:57N 32°38' W 117°23'3 6.1
2018-Apr-11 22:30N 32°37' W 117°25'3 0.6
2018-Apr-11 18:16N 32°36' W 117°23'8 7.0
2018-Apr-11 17:12N 32°38' W 117°14'  
2018-Apr-08 22:24N 32°42' W 117°20'1 2.1
2018-Apr-08 22:00N 32°42' W 117°21'  

Dump ship's entire track history